sensor_id;sensor_type;location;lat;lon;timestamp;temperature;humidity
24338;DHT22;12457;50.832;4.346;2023-04-25T00:00:00;8.90;99.90
24338;DHT22;12457;50.832;4.346;2023-04-25T00:02:26;8.80;99.90
24338;DHT22;12457;50.832;4.346;2023-04-25T00:04:51;8.80;99.90
24338;DHT22;12457;50.832;4.346;2023-04-25T00:07:17;8.60;99.90
24338;DHT22;12457;50.832;4.346;2023-04-25T00:09:44;8.60;99.90
24338;DHT22;12457;50.832;4.346;2023-04-25T00:12:10;8.70;99.90
24338;DHT22;12457;50.832;4.346;2023-04-25T00:14:35;8.70;99.90
24338;DHT22;12457;50.832;4.346;2023-04-25T00:17:01;8.70;99.90
24338;DHT22;12457;50.832;4.346;2023-04-25T00:19:28;8.70;99.90
24338;DHT22;12457;50.832;4.346;2023-04-25T00:21:55;8.70;99.90
24338;DHT22;12457;50.832;4.346;2023-04-25T00:24:21;8.70;99.90
24338;DHT22;12457;50.832;4.346;2023-04-25T00:26:46;8.70;99.90
24338;DHT22;12457;50.832;4.346;2023-04-25T00:29:13;8.60;99.90
24338;DHT22;12457;50.832;4.346;2023-04-25T00:31:38;8.60;99.90
24338;DHT22;12457;50.832;4.346;2023-04-25T00:34:06;8.60;99.90
24338;DHT22;12457;50.832;4.346;2023-04-25T00:36:32;8.60;99.90
24338;DHT22;12457;50.832;4.346;2023-04-25T00:39:06;8.40;99.90
24338;DHT22;12457;50.832;4.346;2023-04-25T00:41:34;8.30;99.90
24338;DHT22;12457;50.832;4.346;2023-04-25T00:44:01;8.30;99.90
24338;DHT22;12457;50.832;4.346;2023-04-25T00:46:28;8.20;99.90
24338;DHT22;12457;50.832;4.346;2023-04-25T00:48:54;8.30;99.90
24338;DHT22;12457;50.832;4.346;2023-04-25T00:51:20;8.20;99.90
24338;DHT22;12457;50.832;4.346;2023-04-25T00:53:48;8.20;99.90
24338;DHT22;12457;50.832;4.346;2023-04-25T00:56:15;8.20;99.90
24338;DHT22;12457;50.832;4.346;2023-04-25T00:58:42;8.20;99.90
24338;DHT22;12457;50.832;4.346;2023-04-25T01:01:08;8.10;99.90
24338;DHT22;12457;50.832;4.346;2023-04-25T01:03:37;8.00;99.90
24338;DHT22;12457;50.832;4.346;2023-04-25T01:06:08;8.10;99.90
24338;DHT22;12457;50.832;4.346;2023-04-25T01:08:34;8.10;99.90
24338;DHT22;12457;50.832;4.346;2023-04-25T01:11:01;8.10;99.90
24338;DHT22;12457;50.832;4.346;2023-04-25T01:13:27;8.10;99.90
24338;DHT22;12457;50.832;4.346;2023-04-25T01:15:52;8.10;99.90
24338;DHT22;12457;50.832;4.346;2023-04-25T01:18:19;8.00;99.90
24338;DHT22;12457;50.832;4.346;2023-04-25T01:20:46;7.90;99.90
24338;DHT22;12457;50.832;4.346;2023-04-25T01:23:13;8.00;99.90
24338;DHT22;12457;50.832;4.346;2023-04-25T01:25:39;7.90;99.90
24338;DHT22;12457;50.832;4.346;2023-04-25T01:28:05;7.90;99.90
24338;DHT22;12457;50.832;4.346;2023-04-25T01:30:31;7.90;99.90
24338;DHT22;12457;50.832;4.346;2023-04-25T01:32:57;7.80;99.90
24338;DHT22;12457;50.832;4.346;2023-04-25T01:35:24;7.80;99.90
24338;DHT22;12457;50.832;4.346;2023-04-25T01:37:51;7.80;99.90
24338;DHT22;12457;50.832;4.346;2023-04-25T01:40:17;7.80;99.90
24338;DHT22;12457;50.832;4.346;2023-04-25T01:42:44;7.90;99.90
24338;DHT22;12457;50.832;4.346;2023-04-25T01:45:11;7.80;99.90
24338;DHT22;12457;50.832;4.346;2023-04-25T01:47:38;7.90;99.90
24338;DHT22;12457;50.832;4.346;2023-04-25T01:50:06;7.90;99.90
24338;DHT22;12457;50.832;4.346;2023-04-25T01:52:32;7.80;99.90
24338;DHT22;12457;50.832;4.346;2023-04-25T01:55:18;7.90;99.90
24338;DHT22;12457;50.832;4.346;2023-04-25T01:57:44;7.90;99.90
24338;DHT22;12457;50.832;4.346;2023-04-25T02:00:10;7.90;99.90
24338;DHT22;12457;50.832;4.346;2023-04-25T02:02:36;7.90;99.90
24338;DHT22;12457;50.832;4.346;2023-04-25T02:05:01;7.90;99.90
24338;DHT22;12457;50.832;4.346;2023-04-25T02:07:27;7.80;99.90
24338;DHT22;12457;50.832;4.346;2023-04-25T02:09:53;7.80;99.90
24338;DHT22;12457;50.832;4.346;2023-04-25T02:12:20;7.80;99.90
24338;DHT22;12457;50.832;4.346;2023-04-25T02:14:47;7.80;99.90
24338;DHT22;12457;50.832;4.346;2023-04-25T02:17:14;7.90;99.90
24338;DHT22;12457;50.832;4.346;2023-04-25T02:19:40;7.80;99.90
24338;DHT22;12457;50.832;4.346;2023-04-25T02:22:05;7.70;99.90
24338;DHT22;12457;50.832;4.346;2023-04-25T02:25:08;7.70;99.90
24338;DHT22;12457;50.832;4.346;2023-04-25T02:27:34;7.60;99.90
24338;DHT22;12457;50.832;4.346;2023-04-25T02:30:00;7.60;99.90
24338;DHT22;12457;50.832;4.346;2023-04-25T02:32:26;7.50;99.90
24338;DHT22;12457;50.832;4.346;2023-04-25T02:34:52;7.50;99.90
24338;DHT22;12457;50.832;4.346;2023-04-25T02:37:19;7.40;99.90
24338;DHT22;12457;50.832;4.346;2023-04-25T02:39:47;7.50;99.90
24338;DHT22;12457;50.832;4.346;2023-04-25T02:42:13;7.50;99.90
24338;DHT22;12457;50.832;4.346;2023-04-25T02:44:40;7.40;99.90
24338;DHT22;12457;50.832;4.346;2023-04-25T02:47:06;7.50;99.90
24338;DHT22;12457;50.832;4.346;2023-04-25T02:49:31;7.40;99.90
24338;DHT22;12457;50.832;4.346;2023-04-25T02:51:57;7.40;99.90
24338;DHT22;12457;50.832;4.346;2023-04-25T02:54:22;7.40;99.90
24338;DHT22;12457;50.832;4.346;2023-04-25T02:56:48;7.30;99.90
24338;DHT22;12457;50.832;4.346;2023-04-25T02:59:14;7.40;99.90
24338;DHT22;12457;50.832;4.346;2023-04-25T03:01:39;7.40;99.90
24338;DHT22;12457;50.832;4.346;2023-04-25T03:04:05;7.60;99.90
24338;DHT22;12457;50.832;4.346;2023-04-25T03:06:31;7.70;99.90
24338;DHT22;12457;50.832;4.346;2023-04-25T03:08:56;7.60;99.90
24338;DHT22;12457;50.832;4.346;2023-04-25T03:11:23;7.60;99.90
24338;DHT22;12457;50.832;4.346;2023-04-25T03:13:50;7.60;99.90
24338;DHT22;12457;50.832;4.346;2023-04-25T03:16:15;7.60;99.90
24338;DHT22;12457;50.832;4.346;2023-04-25T03:18:41;7.60;99.90
24338;DHT22;12457;50.832;4.346;2023-04-25T03:21:07;7.60;99.90
24338;DHT22;12457;50.832;4.346;2023-04-25T03:23:33;7.60;99.90
24338;DHT22;12457;50.832;4.346;2023-04-25T03:25:59;7.60;99.90
24338;DHT22;12457;50.832;4.346;2023-04-25T03:28:24;7.60;99.90
24338;DHT22;12457;50.832;4.346;2023-04-25T03:30:50;7.60;99.90
24338;DHT22;12457;50.832;4.346;2023-04-25T03:33:16;7.50;99.90
24338;DHT22;12457;50.832;4.346;2023-04-25T03:35:42;7.50;99.90
24338;DHT22;12457;50.832;4.346;2023-04-25T03:38:08;7.40;99.90
24338;DHT22;12457;50.832;4.346;2023-04-25T03:40:34;7.30;99.90
24338;DHT22;12457;50.832;4.346;2023-04-25T03:42:59;7.20;99.90
24338;DHT22;12457;50.832;4.346;2023-04-25T03:45:26;7.20;99.90
24338;DHT22;12457;50.832;4.346;2023-04-25T03:47:52;7.20;99.90
24338;DHT22;12457;50.832;4.346;2023-04-25T03:50:18;7.20;99.90
24338;DHT22;12457;50.832;4.346;2023-04-25T03:52:43;7.10;99.90
24338;DHT22;12457;50.832;4.346;2023-04-25T03:55:19;7.10;99.90
24338;DHT22;12457;50.832;4.346;2023-04-25T03:57:45;7.00;99.90
24338;DHT22;12457;50.832;4.346;2023-04-25T04:00:11;7.00;99.90
24338;DHT22;12457;50.832;4.346;2023-04-25T04:02:37;7.00;99.90
24338;DHT22;12457;50.832;4.346;2023-04-25T04:05:04;7.00;99.90
24338;DHT22;12457;50.832;4.346;2023-04-25T04:07:31;7.00;99.90
24338;DHT22;12457;50.832;4.346;2023-04-25T04:09:59;7.10;99.90
24338;DHT22;12457;50.832;4.346;2023-04-25T04:12:25;7.10;99.90
24338;DHT22;12457;50.832;4.346;2023-04-25T04:14:51;7.20;99.90
24338;DHT22;12457;50.832;4.346;2023-04-25T04:17:16;7.20;99.90
24338;DHT22;12457;50.832;4.346;2023-04-25T04:19:42;7.20;99.90
24338;DHT22;12457;50.832;4.346;2023-04-25T04:22:08;7.20;99.90
24338;DHT22;12457;50.832;4.346;2023-04-25T04:24:33;7.10;99.90
24338;DHT22;12457;50.832;4.346;2023-04-25T04:26:59;7.20;99.90
24338;DHT22;12457;50.832;4.346;2023-04-25T04:29:25;7.10;99.90
24338;DHT22;12457;50.832;4.346;2023-04-25T04:31:53;7.10;99.90
24338;DHT22;12457;50.832;4.346;2023-04-25T04:34:19;7.20;99.90
24338;DHT22;12457;50.832;4.346;2023-04-25T04:36:45;7.10;99.90
24338;DHT22;12457;50.832;4.346;2023-04-25T04:39:12;7.20;99.90
24338;DHT22;12457;50.832;4.346;2023-04-25T04:41:38;7.20;99.90
24338;DHT22;12457;50.832;4.346;2023-04-25T04:44:05;7.30;99.90
24338;DHT22;12457;50.832;4.346;2023-04-25T04:46:32;7.30;99.90
24338;DHT22;12457;50.832;4.346;2023-04-25T04:49:04;7.30;99.90
24338;DHT22;12457;50.832;4.346;2023-04-25T04:51:30;7.30;99.90
24338;DHT22;12457;50.832;4.346;2023-04-25T04:53:56;7.40;99.90
24338;DHT22;12457;50.832;4.346;2023-04-25T04:56:24;7.40;99.90
24338;DHT22;12457;50.832;4.346;2023-04-25T04:58:51;7.30;99.90
24338;DHT22;12457;50.832;4.346;2023-04-25T05:01:17;7.20;99.90
24338;DHT22;12457;50.832;4.346;2023-04-25T05:03:43;7.20;99.90
24338;DHT22;12457;50.832;4.346;2023-04-25T05:06:09;7.20;99.90
24338;DHT22;12457;50.832;4.346;2023-04-25T05:08:35;7.10;99.90
24338;DHT22;12457;50.832;4.346;2023-04-25T05:11:01;7.10;99.90
24338;DHT22;12457;50.832;4.346;2023-04-25T05:13:27;7.00;99.90
24338;DHT22;12457;50.832;4.346;2023-04-25T05:15:53;7.00;99.90
24338;DHT22;12457;50.832;4.346;2023-04-25T05:18:18;6.90;99.90
24338;DHT22;12457;50.832;4.346;2023-04-25T05:20:44;7.00;99.90
24338;DHT22;12457;50.832;4.346;2023-04-25T05:23:10;7.00;99.90
24338;DHT22;12457;50.832;4.346;2023-04-25T05:25:36;7.00;99.90
24338;DHT22;12457;50.832;4.346;2023-04-25T05:28:01;6.90;99.90
24338;DHT22;12457;50.832;4.346;2023-04-25T05:30:27;6.90;99.90
24338;DHT22;12457;50.832;4.346;2023-04-25T05:32:53;6.80;99.90
24338;DHT22;12457;50.832;4.346;2023-04-25T05:35:18;6.80;99.90
24338;DHT22;12457;50.832;4.346;2023-04-25T05:37:44;6.70;99.90
24338;DHT22;12457;50.832;4.346;2023-04-25T05:40:16;6.70;99.90
24338;DHT22;12457;50.832;4.346;2023-04-25T05:42:41;6.80;99.90
24338;DHT22;12457;50.832;4.346;2023-04-25T05:45:07;6.80;99.90
24338;DHT22;12457;50.832;4.346;2023-04-25T05:47:33;6.80;99.90
24338;DHT22;12457;50.832;4.346;2023-04-25T05:49:59;6.80;99.90
24338;DHT22;12457;50.832;4.346;2023-04-25T05:52:24;6.70;99.90
24338;DHT22;12457;50.832;4.346;2023-04-25T05:54:50;6.80;99.90
24338;DHT22;12457;50.832;4.346;2023-04-25T05:57:26;6.80;99.90
24338;DHT22;12457;50.832;4.346;2023-04-25T05:59:53;6.90;99.90
24338;DHT22;12457;50.832;4.346;2023-04-25T06:02:19;6.90;99.90
24338;DHT22;12457;50.832;4.346;2023-04-25T06:04:46;7.00;99.90
24338;DHT22;12457;50.832;4.346;2023-04-25T06:07:12;7.10;99.90
24338;DHT22;12457;50.832;4.346;2023-04-25T06:09:38;7.10;99.90
24338;DHT22;12457;50.832;4.346;2023-04-25T06:12:41;7.20;99.90
24338;DHT22;12457;50.832;4.346;2023-04-25T06:15:07;7.40;99.90
24338;DHT22;12457;50.832;4.346;2023-04-25T06:17:33;7.50;99.90
24338;DHT22;12457;50.832;4.346;2023-04-25T06:19:59;7.50;99.90
24338;DHT22;12457;50.832;4.346;2023-04-25T06:22:24;7.60;99.90
24338;DHT22;12457;50.832;4.346;2023-04-25T06:24:50;7.70;99.90
24338;DHT22;12457;50.832;4.346;2023-04-25T06:27:16;7.80;99.90
24338;DHT22;12457;50.832;4.346;2023-04-25T06:29:41;7.80;99.90
24338;DHT22;12457;50.832;4.346;2023-04-25T06:32:07;7.80;99.90
24338;DHT22;12457;50.832;4.346;2023-04-25T06:34:33;7.80;99.90
24338;DHT22;12457;50.832;4.346;2023-04-25T06:36:58;7.80;99.90
24338;DHT22;12457;50.832;4.346;2023-04-25T06:39:24;7.70;99.90
24338;DHT22;12457;50.832;4.346;2023-04-25T06:42:00;7.80;99.90
24338;DHT22;12457;50.832;4.346;2023-04-25T06:44:27;7.90;99.90
24338;DHT22;12457;50.832;4.346;2023-04-25T06:46:54;8.10;99.90
24338;DHT22;12457;50.832;4.346;2023-04-25T06:49:20;8.20;99.90
24338;DHT22;12457;50.832;4.346;2023-04-25T06:51:46;8.30;99.90
24338;DHT22;12457;50.832;4.346;2023-04-25T06:54:12;8.30;99.90
24338;DHT22;12457;50.832;4.346;2023-04-25T06:56:38;8.60;99.90
24338;DHT22;12457;50.832;4.346;2023-04-25T06:59:03;8.40;99.90
24338;DHT22;12457;50.832;4.346;2023-04-25T07:01:29;8.50;99.90
24338;DHT22;12457;50.832;4.346;2023-04-25T07:03:55;8.40;99.90
24338;DHT22;12457;50.832;4.346;2023-04-25T07:06:21;8.40;99.90
24338;DHT22;12457;50.832;4.346;2023-04-25T07:08:47;8.40;99.90
24338;DHT22;12457;50.832;4.346;2023-04-25T07:11:25;8.50;99.90
24338;DHT22;12457;50.832;4.346;2023-04-25T07:13:51;8.30;99.90
24338;DHT22;12457;50.832;4.346;2023-04-25T07:16:16;8.30;99.90
24338;DHT22;12457;50.832;4.346;2023-04-25T07:18:42;8.40;99.90
24338;DHT22;12457;50.832;4.346;2023-04-25T07:21:08;8.50;99.90
24338;DHT22;12457;50.832;4.346;2023-04-25T07:23:34;8.50;99.90
24338;DHT22;12457;50.832;4.346;2023-04-25T07:26:00;8.50;99.90
24338;DHT22;12457;50.832;4.346;2023-04-25T07:28:25;8.40;99.90
24338;DHT22;12457;50.832;4.346;2023-04-25T07:30:51;8.30;99.90
24338;DHT22;12457;50.832;4.346;2023-04-25T07:33:17;8.30;99.90
24338;DHT22;12457;50.832;4.346;2023-04-25T07:35:45;8.40;99.90
24338;DHT22;12457;50.832;4.346;2023-04-25T07:38:11;8.60;99.90
24338;DHT22;12457;50.832;4.346;2023-04-25T07:40:37;8.70;99.90
24338;DHT22;12457;50.832;4.346;2023-04-25T07:43:02;8.90;99.90
24338;DHT22;12457;50.832;4.346;2023-04-25T07:45:28;8.80;99.90
24338;DHT22;12457;50.832;4.346;2023-04-25T07:47:54;8.80;99.90
24338;DHT22;12457;50.832;4.346;2023-04-25T07:50:19;8.70;99.90
24338;DHT22;12457;50.832;4.346;2023-04-25T07:52:45;8.90;99.90
24338;DHT22;12457;50.832;4.346;2023-04-25T07:55:11;9.10;99.90
24338;DHT22;12457;50.832;4.346;2023-04-25T07:57:49;9.30;99.90
24338;DHT22;12457;50.832;4.346;2023-04-25T08:00:15;9.30;99.90
24338;DHT22;12457;50.832;4.346;2023-04-25T08:02:41;9.40;99.90
24338;DHT22;12457;50.832;4.346;2023-04-25T08:05:08;9.40;99.90
24338;DHT22;12457;50.832;4.346;2023-04-25T08:07:37;9.60;99.90
24338;DHT22;12457;50.832;4.346;2023-04-25T08:10:05;9.60;99.90
24338;DHT22;12457;50.832;4.346;2023-04-25T08:12:31;9.60;99.90
24338;DHT22;12457;50.832;4.346;2023-04-25T08:14:56;10.00;99.90
24338;DHT22;12457;50.832;4.346;2023-04-25T08:17:22;10.40;99.90
24338;DHT22;12457;50.832;4.346;2023-04-25T08:19:48;10.60;99.90
24338;DHT22;12457;50.832;4.346;2023-04-25T08:22:14;10.60;99.90
24338;DHT22;12457;50.832;4.346;2023-04-25T08:24:43;10.60;99.90
24338;DHT22;12457;50.832;4.346;2023-04-25T08:27:12;10.40;99.90
24338;DHT22;12457;50.832;4.346;2023-04-25T08:29:38;10.20;99.90
24338;DHT22;12457;50.832;4.346;2023-04-25T08:32:07;10.30;99.90
24338;DHT22;12457;50.832;4.346;2023-04-25T08:34:32;10.30;99.90
24338;DHT22;12457;50.832;4.346;2023-04-25T08:36:58;10.20;99.90
24338;DHT22;12457;50.832;4.346;2023-04-25T08:39:24;10.20;99.90
24338;DHT22;12457;50.832;4.346;2023-04-25T08:41:56;10.30;99.90
24338;DHT22;12457;50.832;4.346;2023-04-25T08:44:23;10.50;99.90
24338;DHT22;12457;50.832;4.346;2023-04-25T08:46:51;10.20;99.90
24338;DHT22;12457;50.832;4.346;2023-04-25T08:49:17;9.80;99.90
24338;DHT22;12457;50.832;4.346;2023-04-25T08:51:46;9.50;99.90
24338;DHT22;12457;50.832;4.346;2023-04-25T08:54:15;9.60;99.90
24338;DHT22;12457;50.832;4.346;2023-04-25T08:56:44;9.80;99.90
24338;DHT22;12457;50.832;4.346;2023-04-25T08:59:11;10.20;99.90
24338;DHT22;12457;50.832;4.346;2023-04-25T09:01:37;10.40;99.90
24338;DHT22;12457;50.832;4.346;2023-04-25T09:04:03;10.90;99.90
24338;DHT22;12457;50.832;4.346;2023-04-25T09:06:29;10.80;99.90
24338;DHT22;12457;50.832;4.346;2023-04-25T09:09:05;10.70;99.90
24338;DHT22;12457;50.832;4.346;2023-04-25T09:11:35;10.80;99.90
24338;DHT22;12457;50.832;4.346;2023-04-25T09:14:26;10.80;99.90
24338;DHT22;12457;50.832;4.346;2023-04-25T09:17:04;10.70;99.90
24338;DHT22;12457;50.832;4.346;2023-04-25T09:19:33;10.60;99.90
24338;DHT22;12457;50.832;4.346;2023-04-25T09:34:57;9.90;99.90
24338;DHT22;12457;50.832;4.346;2023-04-25T09:37:26;10.00;99.90
24338;DHT22;12457;50.832;4.346;2023-04-25T09:39:58;10.10;99.90
24338;DHT22;12457;50.832;4.346;2023-04-25T09:42:27;10.10;99.90
24338;DHT22;12457;50.832;4.346;2023-04-25T09:44:55;10.00;99.90
24338;DHT22;12457;50.832;4.346;2023-04-25T09:47:23;9.80;99.90
24338;DHT22;12457;50.832;4.346;2023-04-25T09:49:50;9.70;99.90
24338;DHT22;12457;50.832;4.346;2023-04-25T09:52:18;9.60;99.90
24338;DHT22;12457;50.832;4.346;2023-04-25T09:54:45;9.60;99.90
24338;DHT22;12457;50.832;4.346;2023-04-25T09:57:19;9.80;99.90
24338;DHT22;12457;50.832;4.346;2023-04-25T09:59:49;10.10;99.90
24338;DHT22;12457;50.832;4.346;2023-04-25T10:02:18;10.40;99.90
24338;DHT22;12457;50.832;4.346;2023-04-25T10:04:55;10.80;99.90
24338;DHT22;12457;50.832;4.346;2023-04-25T10:07:26;10.80;99.90
24338;DHT22;12457;50.832;4.346;2023-04-25T10:10:03;10.80;99.90
24338;DHT22;12457;50.832;4.346;2023-04-25T10:12:30;10.70;99.90
24338;DHT22;12457;50.832;4.346;2023-04-25T10:14:59;10.80;99.90
24338;DHT22;12457;50.832;4.346;2023-04-25T10:17:26;10.90;99.90
24338;DHT22;12457;50.832;4.346;2023-04-25T10:19:55;10.60;99.90
24338;DHT22;12457;50.832;4.346;2023-04-25T10:22:41;10.50;99.90
24338;DHT22;12457;50.832;4.346;2023-04-25T10:25:07;10.50;99.90
24338;DHT22;12457;50.832;4.346;2023-04-25T10:27:34;10.70;99.90
24338;DHT22;12457;50.832;4.346;2023-04-25T10:30:18;10.80;99.90
24338;DHT22;12457;50.832;4.346;2023-04-25T10:32:45;11.20;99.90
24338;DHT22;12457;50.832;4.346;2023-04-25T10:35:30;11.40;99.90
24338;DHT22;12457;50.832;4.346;2023-04-25T10:38:14;11.40;99.90
24338;DHT22;12457;50.832;4.346;2023-04-25T10:40:39;11.70;99.90
24338;DHT22;12457;50.832;4.346;2023-04-25T10:46:30;12.60;99.90
24338;DHT22;12457;50.832;4.346;2023-04-25T10:49:02;12.40;99.90
24338;DHT22;12457;50.832;4.346;2023-04-25T10:51:29;12.00;99.90
24338;DHT22;12457;50.832;4.346;2023-04-25T10:54:06;11.80;99.90
24338;DHT22;12457;50.832;4.346;2023-04-25T10:56:37;11.90;99.90
24338;DHT22;12457;50.832;4.346;2023-04-25T10:59:11;11.70;99.90
24338;DHT22;12457;50.832;4.346;2023-04-25T11:01:47;11.50;99.90
24338;DHT22;12457;50.832;4.346;2023-04-25T11:07:09;10.90;99.90
24338;DHT22;12457;50.832;4.346;2023-04-25T11:09:38;10.80;99.90
24338;DHT22;12457;50.832;4.346;2023-04-25T11:12:07;10.50;99.90
24338;DHT22;12457;50.832;4.346;2023-04-25T11:14:34;10.30;99.90
24338;DHT22;12457;50.832;4.346;2023-04-25T11:17:00;10.20;99.90
24338;DHT22;12457;50.832;4.346;2023-04-25T11:19:27;10.20;99.90
24338;DHT22;12457;50.832;4.346;2023-04-25T11:21:56;10.40;99.90
24338;DHT22;12457;50.832;4.346;2023-04-25T11:24:27;10.70;99.90
24338;DHT22;12457;50.832;4.346;2023-04-25T11:26:53;11.10;99.90
24338;DHT22;12457;50.832;4.346;2023-04-25T11:29:22;11.20;99.90
24338;DHT22;12457;50.832;4.346;2023-04-25T11:31:48;11.20;99.90
24338;DHT22;12457;50.832;4.346;2023-04-25T11:34:18;11.10;99.90
24338;DHT22;12457;50.832;4.346;2023-04-25T11:36:45;11.00;99.90
24338;DHT22;12457;50.832;4.346;2023-04-25T11:39:11;11.10;99.90
24338;DHT22;12457;50.832;4.346;2023-04-25T11:41:41;11.10;99.90
24338;DHT22;12457;50.832;4.346;2023-04-25T11:44:07;11.40;99.90
24338;DHT22;12457;50.832;4.346;2023-04-25T11:46:36;11.60;99.90
24338;DHT22;12457;50.832;4.346;2023-04-25T11:49:01;11.50;99.90
24338;DHT22;12457;50.832;4.346;2023-04-25T11:51:48;11.20;99.90
24338;DHT22;12457;50.832;4.346;2023-04-25T11:54:14;11.30;99.90
24338;DHT22;12457;50.832;4.346;2023-04-25T11:56:42;11.30;99.90
24338;DHT22;12457;50.832;4.346;2023-04-25T11:59:08;11.50;99.90
24338;DHT22;12457;50.832;4.346;2023-04-25T12:01:38;11.80;99.90
24338;DHT22;12457;50.832;4.346;2023-04-25T12:04:30;12.20;99.90
24338;DHT22;12457;50.832;4.346;2023-04-25T12:06:56;12.20;99.90
24338;DHT22;12457;50.832;4.346;2023-04-25T12:09:32;12.40;99.90
24338;DHT22;12457;50.832;4.346;2023-04-25T12:11:59;12.20;99.90
24338;DHT22;12457;50.832;4.346;2023-04-25T12:14:30;12.30;99.90
24338;DHT22;12457;50.832;4.346;2023-04-25T12:16:58;12.00;99.90
24338;DHT22;12457;50.832;4.346;2023-04-25T12:19:24;12.10;99.90
24338;DHT22;12457;50.832;4.346;2023-04-25T12:21:51;12.20;99.90
24338;DHT22;12457;50.832;4.346;2023-04-25T12:24:25;12.40;99.90
24338;DHT22;12457;50.832;4.346;2023-04-25T12:27:01;12.50;99.90
24338;DHT22;12457;50.832;4.346;2023-04-25T12:29:29;12.20;99.90
24338;DHT22;12457;50.832;4.346;2023-04-25T12:31:55;11.70;99.90
24338;DHT22;12457;50.832;4.346;2023-04-25T12:34:22;11.30;99.90
24338;DHT22;12457;50.832;4.346;2023-04-25T12:36:49;11.30;99.90
24338;DHT22;12457;50.832;4.346;2023-04-25T12:39:19;11.40;99.90
24338;DHT22;12457;50.832;4.346;2023-04-25T12:41:45;11.20;99.90
24338;DHT22;12457;50.832;4.346;2023-04-25T12:44:12;11.30;99.90
24338;DHT22;12457;50.832;4.346;2023-04-25T12:46:38;11.70;99.90
24338;DHT22;12457;50.832;4.346;2023-04-25T12:49:04;12.00;99.60
24338;DHT22;12457;50.832;4.346;2023-04-25T12:51:31;12.20;99.90
24338;DHT22;12457;50.832;4.346;2023-04-25T12:53:58;12.30;99.90
24338;DHT22;12457;50.832;4.346;2023-04-25T12:56:25;12.50;99.90
24338;DHT22;12457;50.832;4.346;2023-04-25T12:58:52;12.30;99.90
24338;DHT22;12457;50.832;4.346;2023-04-25T13:01:17;12.50;99.90
24338;DHT22;12457;50.832;4.346;2023-04-25T13:03:43;12.40;99.00
24338;DHT22;12457;50.832;4.346;2023-04-25T13:06:09;12.40;99.80
24338;DHT22;12457;50.832;4.346;2023-04-25T13:08:35;12.10;99.90
24338;DHT22;12457;50.832;4.346;2023-04-25T13:11:02;11.90;99.90
24338;DHT22;12457;50.832;4.346;2023-04-25T13:13:29;11.50;99.90
24338;DHT22;12457;50.832;4.346;2023-04-25T13:15:55;11.50;99.90
24338;DHT22;12457;50.832;4.346;2023-04-25T13:18:21;11.50;99.90
24338;DHT22;12457;50.832;4.346;2023-04-25T13:20:46;11.60;99.90
24338;DHT22;12457;50.832;4.346;2023-04-25T13:23:12;11.50;99.90
24338;DHT22;12457;50.832;4.346;2023-04-25T13:25:38;11.50;99.90
24338;DHT22;12457;50.832;4.346;2023-04-25T13:28:03;11.60;99.90
24338;DHT22;12457;50.832;4.346;2023-04-25T13:30:30;11.60;99.90
24338;DHT22;12457;50.832;4.346;2023-04-25T13:32:55;11.30;99.90
24338;DHT22;12457;50.832;4.346;2023-04-25T13:35:22;11.30;99.90
24338;DHT22;12457;50.832;4.346;2023-04-25T13:37:48;11.30;99.90
24338;DHT22;12457;50.832;4.346;2023-04-25T13:40:14;11.40;99.90
24338;DHT22;12457;50.832;4.346;2023-04-25T13:42:40;11.60;99.90
24338;DHT22;12457;50.832;4.346;2023-04-25T13:45:06;11.90;98.60
24338;DHT22;12457;50.832;4.346;2023-04-25T13:47:33;11.90;96.80
24338;DHT22;12457;50.832;4.346;2023-04-25T13:49:59;12.20;96.70
24338;DHT22;12457;50.832;4.346;2023-04-25T13:52:26;12.30;96.30
24338;DHT22;12457;50.832;4.346;2023-04-25T13:54:52;12.60;96.30
24338;DHT22;12457;50.832;4.346;2023-04-25T13:57:18;12.60;95.80
24338;DHT22;12457;50.832;4.346;2023-04-25T13:59:45;12.30;98.40
24338;DHT22;12457;50.832;4.346;2023-04-25T14:02:11;12.10;99.80
24338;DHT22;12457;50.832;4.346;2023-04-25T14:04:37;12.00;99.90
24338;DHT22;12457;50.832;4.346;2023-04-25T14:07:03;11.70;99.90
24338;DHT22;12457;50.832;4.346;2023-04-25T14:09:30;11.70;99.90
24338;DHT22;12457;50.832;4.346;2023-04-25T14:11:56;11.20;99.90
24338;DHT22;12457;50.832;4.346;2023-04-25T14:14:22;11.10;99.90
24338;DHT22;12457;50.832;4.346;2023-04-25T14:16:49;11.10;99.90
24338;DHT22;12457;50.832;4.346;2023-04-25T14:19:16;11.10;99.90
24338;DHT22;12457;50.832;4.346;2023-04-25T14:21:42;11.00;99.90
24338;DHT22;12457;50.832;4.346;2023-04-25T14:24:09;11.10;99.90
24338;DHT22;12457;50.832;4.346;2023-04-25T14:26:34;11.10;99.90
24338;DHT22;12457;50.832;4.346;2023-04-25T14:29:04;11.10;99.90
24338;DHT22;12457;50.832;4.346;2023-04-25T14:31:30;11.00;99.90
24338;DHT22;12457;50.832;4.346;2023-04-25T14:33:56;11.30;99.90
24338;DHT22;12457;50.832;4.346;2023-04-25T14:36:22;11.60;99.90
24338;DHT22;12457;50.832;4.346;2023-04-25T14:38:48;11.70;98.70
24338;DHT22;12457;50.832;4.346;2023-04-25T14:41:13;12.00;98.30
24338;DHT22;12457;50.832;4.346;2023-04-25T14:43:39;12.00;97.00
24338;DHT22;12457;50.832;4.346;2023-04-25T14:46:06;12.20;97.50
24338;DHT22;12457;50.832;4.346;2023-04-25T14:48:32;12.30;97.40
24338;DHT22;12457;50.832;4.346;2023-04-25T14:50:59;12.30;97.60
24338;DHT22;12457;50.832;4.346;2023-04-25T14:53:25;12.20;98.60
24338;DHT22;12457;50.832;4.346;2023-04-25T14:55:52;11.90;99.30
24338;DHT22;12457;50.832;4.346;2023-04-25T14:58:18;11.80;99.90
24338;DHT22;12457;50.832;4.346;2023-04-25T15:00:44;11.70;99.90
24338;DHT22;12457;50.832;4.346;2023-04-25T15:03:10;11.40;99.90
24338;DHT22;12457;50.832;4.346;2023-04-25T15:05:38;11.30;99.90
24338;DHT22;12457;50.832;4.346;2023-04-25T15:08:06;11.40;99.50
24338;DHT22;12457;50.832;4.346;2023-04-25T15:10:31;11.20;99.90
24338;DHT22;12457;50.832;4.346;2023-04-25T15:12:57;11.20;98.60
24338;DHT22;12457;50.832;4.346;2023-04-25T15:15:23;11.20;99.70
24338;DHT22;12457;50.832;4.346;2023-04-25T15:17:49;11.20;99.90
24338;DHT22;12457;50.832;4.346;2023-04-25T15:20:16;11.30;99.90
24338;DHT22;12457;50.832;4.346;2023-04-25T15:22:51;11.50;99.50
24338;DHT22;12457;50.832;4.346;2023-04-25T15:25:16;11.50;99.90
24338;DHT22;12457;50.832;4.346;2023-04-25T15:27:45;11.60;99.60
24338;DHT22;12457;50.832;4.346;2023-04-25T15:30:15;11.60;98.90
24338;DHT22;12457;50.832;4.346;2023-04-25T15:32:42;11.50;98.70
24338;DHT22;12457;50.832;4.346;2023-04-25T15:35:08;11.40;98.60
24338;DHT22;12457;50.832;4.346;2023-04-25T15:37:35;11.30;99.90
24338;DHT22;12457;50.832;4.346;2023-04-25T15:40:08;11.40;99.80
24338;DHT22;12457;50.832;4.346;2023-04-25T15:42:52;11.50;98.50
24338;DHT22;12457;50.832;4.346;2023-04-25T15:45:24;11.30;99.10
24338;DHT22;12457;50.832;4.346;2023-04-25T15:47:51;11.30;99.10
24338;DHT22;12457;50.832;4.346;2023-04-25T15:50:18;11.20;99.20
24338;DHT22;12457;50.832;4.346;2023-04-25T15:52:44;11.00;99.70
24338;DHT22;12457;50.832;4.346;2023-04-25T15:55:10;10.90;99.90
24338;DHT22;12457;50.832;4.346;2023-04-25T15:57:37;10.90;99.90
24338;DHT22;12457;50.832;4.346;2023-04-25T16:00:05;11.00;99.90